sensor_id;sensor_type;location;lat;lon;timestamp;P1;durP1;ratioP1;P2;durP2;ratioP2
10847;SDS011;5477;48.806;9.154;2022-12-08T00:01:25;9.43;;;5.70;;
10847;SDS011;5477;48.806;9.154;2022-12-08T00:03:56;8.60;;;6.17;;
10847;SDS011;5477;48.806;9.154;2022-12-08T00:06:27;9.23;;;5.90;;
10847;SDS011;5477;48.806;9.154;2022-12-08T00:09:14;8.17;;;5.50;;
10847;SDS011;5477;48.806;9.154;2022-12-08T00:11:50;7.90;;;5.77;;
10847;SDS011;5477;48.806;9.154;2022-12-08T00:14:24;8.97;;;6.13;;
10847;SDS011;5477;48.806;9.154;2022-12-08T00:16:54;6.97;;;5.37;;
10847;SDS011;5477;48.806;9.154;2022-12-08T00:19:23;9.53;;;5.40;;
10847;SDS011;5477;48.806;9.154;2022-12-08T00:21:52;7.23;;;5.10;;
10847;SDS011;5477;48.806;9.154;2022-12-08T00:24:23;9.73;;;6.50;;
10847;SDS011;5477;48.806;9.154;2022-12-08T00:26:55;10.20;;;6.17;;
10847;SDS011;5477;48.806;9.154;2022-12-08T00:29:23;7.80;;;4.80;;
10847;SDS011;5477;48.806;9.154;2022-12-08T00:31:52;9.03;;;5.40;;
10847;SDS011;5477;48.806;9.154;2022-12-08T00:34:20;6.47;;;4.93;;
10847;SDS011;5477;48.806;9.154;2022-12-08T00:36:49;6.77;;;5.20;;
10847;SDS011;5477;48.806;9.154;2022-12-08T00:39:17;8.33;;;4.83;;
10847;SDS011;5477;48.806;9.154;2022-12-08T00:41:45;7.97;;;5.70;;
10847;SDS011;5477;48.806;9.154;2022-12-08T00:44:30;7.03;;;4.93;;
10847;SDS011;5477;48.806;9.154;2022-12-08T00:46:58;7.93;;;5.13;;
10847;SDS011;5477;48.806;9.154;2022-12-08T00:49:26;7.20;;;5.27;;
10847;SDS011;5477;48.806;9.154;2022-12-08T00:51:55;5.77;;;4.50;;
10847;SDS011;5477;48.806;9.154;2022-12-08T00:54:23;6.70;;;4.93;;
10847;SDS011;5477;48.806;9.154;2022-12-08T00:56:51;9.20;;;5.50;;
10847;SDS011;5477;48.806;9.154;2022-12-08T00:59:19;8.80;;;5.30;;
10847;SDS011;5477;48.806;9.154;2022-12-08T01:01:47;8.60;;;5.47;;
10847;SDS011;5477;48.806;9.154;2022-12-08T01:04:17;9.90;;;5.90;;
10847;SDS011;5477;48.806;9.154;2022-12-08T01:06:46;7.67;;;5.37;;
10847;SDS011;5477;48.806;9.154;2022-12-08T01:09:16;7.33;;;5.07;;
10847;SDS011;5477;48.806;9.154;2022-12-08T01:11:44;6.63;;;4.63;;
10847;SDS011;5477;48.806;9.154;2022-12-08T01:14:14;12.67;;;6.17;;
10847;SDS011;5477;48.806;9.154;2022-12-08T01:16:42;8.93;;;5.77;;
10847;SDS011;5477;48.806;9.154;2022-12-08T01:19:10;13.27;;;7.37;;
10847;SDS011;5477;48.806;9.154;2022-12-08T01:21:40;7.47;;;5.60;;
10847;SDS011;5477;48.806;9.154;2022-12-08T01:24:09;8.20;;;4.87;;
10847;SDS011;5477;48.806;9.154;2022-12-08T01:26:40;6.93;;;4.50;;
10847;SDS011;5477;48.806;9.154;2022-12-08T01:29:08;7.07;;;5.20;;
10847;SDS011;5477;48.806;9.154;2022-12-08T01:31:37;5.67;;;4.50;;
10847;SDS011;5477;48.806;9.154;2022-12-08T01:34:05;8.20;;;5.20;;
10847;SDS011;5477;48.806;9.154;2022-12-08T01:36:34;8.57;;;5.47;;
10847;SDS011;5477;48.806;9.154;2022-12-08T01:39:05;10.47;;;6.40;;
10847;SDS011;5477;48.806;9.154;2022-12-08T01:41:35;9.50;;;6.27;;
10847;SDS011;5477;48.806;9.154;2022-12-08T01:47:06;7.90;;;6.00;;
10847;SDS011;5477;48.806;9.154;2022-12-08T01:49:34;7.93;;;5.60;;
10847;SDS011;5477;48.806;9.154;2022-12-08T01:52:04;5.83;;;4.63;;
10847;SDS011;5477;48.806;9.154;2022-12-08T01:54:38;8.57;;;5.53;;
10847;SDS011;5477;48.806;9.154;2022-12-08T01:57:10;7.50;;;5.23;;
10847;SDS011;5477;48.806;9.154;2022-12-08T01:59:42;10.07;;;5.73;;
10847;SDS011;5477;48.806;9.154;2022-12-08T02:02:14;8.47;;;5.37;;
10847;SDS011;5477;48.806;9.154;2022-12-08T02:04:42;7.07;;;5.20;;
10847;SDS011;5477;48.806;9.154;2022-12-08T02:07:10;8.87;;;5.83;;
10847;SDS011;5477;48.806;9.154;2022-12-08T02:09:40;8.77;;;5.63;;
10847;SDS011;5477;48.806;9.154;2022-12-08T02:12:09;8.17;;;5.10;;
10847;SDS011;5477;48.806;9.154;2022-12-08T02:14:37;7.40;;;5.23;;
10847;SDS011;5477;48.806;9.154;2022-12-08T02:17:08;7.80;;;5.60;;
10847;SDS011;5477;48.806;9.154;2022-12-08T02:22:42;8.13;;;5.53;;
10847;SDS011;5477;48.806;9.154;2022-12-08T02:25:19;7.07;;;5.17;;
10847;SDS011;5477;48.806;9.154;2022-12-08T02:27:57;7.80;;;5.07;;
10847;SDS011;5477;48.806;9.154;2022-12-08T02:30:32;9.77;;;5.67;;
10847;SDS011;5477;48.806;9.154;2022-12-08T02:36:16;9.53;;;5.40;;
10847;SDS011;5477;48.806;9.154;2022-12-08T02:38:52;8.57;;;5.80;;
10847;SDS011;5477;48.806;9.154;2022-12-08T02:41:30;9.30;;;6.20;;
10847;SDS011;5477;48.806;9.154;2022-12-08T02:44:05;8.57;;;5.53;;
10847;SDS011;5477;48.806;9.154;2022-12-08T02:46:40;8.23;;;5.63;;
10847;SDS011;5477;48.806;9.154;2022-12-08T02:49:12;8.73;;;6.33;;
10847;SDS011;5477;48.806;9.154;2022-12-08T02:51:41;7.00;;;5.03;;
10847;SDS011;5477;48.806;9.154;2022-12-08T02:54:09;8.30;;;5.43;;
10847;SDS011;5477;48.806;9.154;2022-12-08T02:56:44;8.80;;;5.63;;
10847;SDS011;5477;48.806;9.154;2022-12-08T02:59:30;9.90;;;4.77;;
10847;SDS011;5477;48.806;9.154;2022-12-08T03:02:11;7.30;;;5.23;;
10847;SDS011;5477;48.806;9.154;2022-12-08T03:05:00;7.83;;;5.67;;
10847;SDS011;5477;48.806;9.154;2022-12-08T03:07:36;8.80;;;5.50;;
10847;SDS011;5477;48.806;9.154;2022-12-08T03:10:09;6.83;;;4.87;;
10847;SDS011;5477;48.806;9.154;2022-12-08T03:12:41;9.97;;;5.87;;
10847;SDS011;5477;48.806;9.154;2022-12-08T03:15:13;6.93;;;4.80;;
10847;SDS011;5477;48.806;9.154;2022-12-08T03:17:46;8.53;;;5.27;;
10847;SDS011;5477;48.806;9.154;2022-12-08T03:20:20;6.87;;;5.20;;
10847;SDS011;5477;48.806;9.154;2022-12-08T03:22:50;8.17;;;5.20;;
10847;SDS011;5477;48.806;9.154;2022-12-08T03:25:23;7.73;;;5.07;;
10847;SDS011;5477;48.806;9.154;2022-12-08T03:27:53;7.13;;;5.00;;
10847;SDS011;5477;48.806;9.154;2022-12-08T03:30:21;6.77;;;5.27;;
10847;SDS011;5477;48.806;9.154;2022-12-08T03:32:51;8.23;;;5.17;;
10847;SDS011;5477;48.806;9.154;2022-12-08T03:35:25;7.73;;;5.07;;
10847;SDS011;5477;48.806;9.154;2022-12-08T03:38:00;8.53;;;5.43;;
10847;SDS011;5477;48.806;9.154;2022-12-08T03:40:29;12.80;;;5.60;;
10847;SDS011;5477;48.806;9.154;2022-12-08T03:42:57;7.93;;;5.10;;
10847;SDS011;5477;48.806;9.154;2022-12-08T03:45:25;7.67;;;5.03;;
10847;SDS011;5477;48.806;9.154;2022-12-08T03:47:53;8.97;;;5.23;;
10847;SDS011;5477;48.806;9.154;2022-12-08T03:50:22;7.77;;;5.43;;
10847;SDS011;5477;48.806;9.154;2022-12-08T03:52:51;8.57;;;5.50;;
10847;SDS011;5477;48.806;9.154;2022-12-08T03:55:19;7.17;;;5.07;;
10847;SDS011;5477;48.806;9.154;2022-12-08T03:57:47;7.80;;;5.10;;
10847;SDS011;5477;48.806;9.154;2022-12-08T04:00:15;7.63;;;5.00;;
10847;SDS011;5477;48.806;9.154;2022-12-08T04:02:44;6.57;;;4.60;;
10847;SDS011;5477;48.806;9.154;2022-12-08T04:05:12;7.70;;;4.97;;
10847;SDS011;5477;48.806;9.154;2022-12-08T04:07:40;8.00;;;4.83;;
10847;SDS011;5477;48.806;9.154;2022-12-08T04:10:10;8.70;;;5.10;;
10847;SDS011;5477;48.806;9.154;2022-12-08T04:12:38;8.17;;;5.30;;
10847;SDS011;5477;48.806;9.154;2022-12-08T04:15:06;6.97;;;4.90;;
10847;SDS011;5477;48.806;9.154;2022-12-08T04:17:35;8.00;;;5.23;;
10847;SDS011;5477;48.806;9.154;2022-12-08T04:20:03;8.87;;;4.97;;
10847;SDS011;5477;48.806;9.154;2022-12-08T04:22:32;6.07;;;4.93;;
10847;SDS011;5477;48.806;9.154;2022-12-08T04:25:00;6.20;;;4.40;;
10847;SDS011;5477;48.806;9.154;2022-12-08T04:27:30;7.53;;;4.43;;
10847;SDS011;5477;48.806;9.154;2022-12-08T04:29:57;8.40;;;4.90;;
10847;SDS011;5477;48.806;9.154;2022-12-08T04:32:25;6.67;;;4.63;;
10847;SDS011;5477;48.806;9.154;2022-12-08T04:34:53;9.77;;;6.23;;
10847;SDS011;5477;48.806;9.154;2022-12-08T04:37:21;9.03;;;5.77;;
10847;SDS011;5477;48.806;9.154;2022-12-08T04:39:49;11.03;;;5.87;;
10847;SDS011;5477;48.806;9.154;2022-12-08T04:42:17;6.90;;;4.80;;
10847;SDS011;5477;48.806;9.154;2022-12-08T04:44:46;6.47;;;4.40;;
10847;SDS011;5477;48.806;9.154;2022-12-08T04:47:14;5.87;;;4.20;;
10847;SDS011;5477;48.806;9.154;2022-12-08T04:49:42;6.57;;;4.17;;
10847;SDS011;5477;48.806;9.154;2022-12-08T04:52:10;6.47;;;4.27;;
10847;SDS011;5477;48.806;9.154;2022-12-08T04:54:38;6.57;;;4.30;;
10847;SDS011;5477;48.806;9.154;2022-12-08T04:57:06;6.60;;;4.70;;
10847;SDS011;5477;48.806;9.154;2022-12-08T04:59:35;7.23;;;4.33;;
10847;SDS011;5477;48.806;9.154;2022-12-08T05:02:04;8.57;;;5.23;;
10847;SDS011;5477;48.806;9.154;2022-12-08T05:04:32;7.43;;;5.00;;
10847;SDS011;5477;48.806;9.154;2022-12-08T05:07:00;7.60;;;4.87;;
10847;SDS011;5477;48.806;9.154;2022-12-08T05:09:28;6.77;;;5.03;;
10847;SDS011;5477;48.806;9.154;2022-12-08T05:11:56;6.43;;;4.90;;
10847;SDS011;5477;48.806;9.154;2022-12-08T05:14:24;9.00;;;5.20;;
10847;SDS011;5477;48.806;9.154;2022-12-08T05:16:52;7.47;;;4.80;;
10847;SDS011;5477;48.806;9.154;2022-12-08T05:19:21;9.13;;;5.33;;
10847;SDS011;5477;48.806;9.154;2022-12-08T05:21:49;8.33;;;5.13;;
10847;SDS011;5477;48.806;9.154;2022-12-08T05:24:17;8.47;;;5.73;;
10847;SDS011;5477;48.806;9.154;2022-12-08T05:26:45;7.93;;;5.47;;
10847;SDS011;5477;48.806;9.154;2022-12-08T05:29:13;9.27;;;6.03;;
10847;SDS011;5477;48.806;9.154;2022-12-08T05:31:41;7.23;;;5.17;;
10847;SDS011;5477;48.806;9.154;2022-12-08T05:34:09;9.80;;;5.93;;
10847;SDS011;5477;48.806;9.154;2022-12-08T05:36:38;8.40;;;6.00;;
10847;SDS011;5477;48.806;9.154;2022-12-08T05:39:07;7.17;;;5.40;;
10847;SDS011;5477;48.806;9.154;2022-12-08T05:41:37;9.03;;;6.10;;
10847;SDS011;5477;48.806;9.154;2022-12-08T05:44:05;8.60;;;5.60;;
10847;SDS011;5477;48.806;9.154;2022-12-08T05:46:34;9.20;;;6.07;;
10847;SDS011;5477;48.806;9.154;2022-12-08T05:49:02;9.13;;;5.63;;
10847;SDS011;5477;48.806;9.154;2022-12-08T05:51:31;9.23;;;6.37;;
10847;SDS011;5477;48.806;9.154;2022-12-08T05:54:00;9.40;;;6.03;;
10847;SDS011;5477;48.806;9.154;2022-12-08T05:56:28;12.30;;;8.03;;
10847;SDS011;5477;48.806;9.154;2022-12-08T05:58:56;10.43;;;7.27;;
10847;SDS011;5477;48.806;9.154;2022-12-08T06:01:24;9.20;;;6.10;;
10847;SDS011;5477;48.806;9.154;2022-12-08T06:03:53;10.07;;;6.00;;
10847;SDS011;5477;48.806;9.154;2022-12-08T06:06:23;9.43;;;6.03;;
10847;SDS011;5477;48.806;9.154;2022-12-08T06:08:51;10.73;;;7.30;;
10847;SDS011;5477;48.806;9.154;2022-12-08T06:11:22;10.70;;;7.43;;
10847;SDS011;5477;48.806;9.154;2022-12-08T06:13:52;11.63;;;7.53;;
10847;SDS011;5477;48.806;9.154;2022-12-08T06:16:21;9.50;;;6.13;;
10847;SDS011;5477;48.806;9.154;2022-12-08T06:18:50;9.53;;;6.80;;
10847;SDS011;5477;48.806;9.154;2022-12-08T06:21:18;9.30;;;6.17;;
10847;SDS011;5477;48.806;9.154;2022-12-08T06:23:46;15.10;;;10.77;;
10847;SDS011;5477;48.806;9.154;2022-12-08T06:26:15;10.60;;;6.97;;
10847;SDS011;5477;48.806;9.154;2022-12-08T06:28:46;9.03;;;5.53;;
10847;SDS011;5477;48.806;9.154;2022-12-08T06:31:15;11.73;;;7.33;;
10847;SDS011;5477;48.806;9.154;2022-12-08T06:33:45;9.17;;;6.00;;
10847;SDS011;5477;48.806;9.154;2022-12-08T06:36:14;15.23;;;10.53;;
10847;SDS011;5477;48.806;9.154;2022-12-08T06:38:44;7.80;;;5.60;;
10847;SDS011;5477;48.806;9.154;2022-12-08T06:41:12;6.17;;;4.60;;
10847;SDS011;5477;48.806;9.154;2022-12-08T06:43:40;14.70;;;7.50;;
10847;SDS011;5477;48.806;9.154;2022-12-08T06:46:10;8.43;;;5.30;;
10847;SDS011;5477;48.806;9.154;2022-12-08T06:48:40;9.33;;;4.50;;
10847;SDS011;5477;48.806;9.154;2022-12-08T06:51:09;7.07;;;4.53;;
10847;SDS011;5477;48.806;9.154;2022-12-08T06:53:38;8.10;;;5.00;;
10847;SDS011;5477;48.806;9.154;2022-12-08T06:56:07;5.33;;;4.50;;
10847;SDS011;5477;48.806;9.154;2022-12-08T06:58:36;6.27;;;4.30;;
10847;SDS011;5477;48.806;9.154;2022-12-08T07:01:05;5.93;;;4.33;;
10847;SDS011;5477;48.806;9.154;2022-12-08T07:03:36;7.93;;;4.33;;
10847;SDS011;5477;48.806;9.154;2022-12-08T07:06:04;6.23;;;4.10;;
10847;SDS011;5477;48.806;9.154;2022-12-08T07:08:33;8.20;;;4.30;;
10847;SDS011;5477;48.806;9.154;2022-12-08T07:11:05;7.23;;;4.30;;
10847;SDS011;5477;48.806;9.154;2022-12-08T07:13:33;6.50;;;3.97;;
10847;SDS011;5477;48.806;9.154;2022-12-08T07:16:03;6.03;;;4.47;;
10847;SDS011;5477;48.806;9.154;2022-12-08T07:18:32;6.23;;;4.50;;
10847;SDS011;5477;48.806;9.154;2022-12-08T07:21:05;10.60;;;4.70;;
10847;SDS011;5477;48.806;9.154;2022-12-08T07:23:35;6.20;;;4.63;;
10847;SDS011;5477;48.806;9.154;2022-12-08T07:26:04;6.17;;;4.40;;
10847;SDS011;5477;48.806;9.154;2022-12-08T07:28:35;6.90;;;4.50;;
10847;SDS011;5477;48.806;9.154;2022-12-08T07:31:05;7.37;;;4.37;;
10847;SDS011;5477;48.806;9.154;2022-12-08T07:33:33;6.57;;;4.70;;
10847;SDS011;5477;48.806;9.154;2022-12-08T07:36:03;6.03;;;4.73;;
10847;SDS011;5477;48.806;9.154;2022-12-08T07:38:33;7.43;;;4.70;;
10847;SDS011;5477;48.806;9.154;2022-12-08T07:41:01;6.93;;;4.23;;
10847;SDS011;5477;48.806;9.154;2022-12-08T07:43:29;9.80;;;4.40;;
10847;SDS011;5477;48.806;9.154;2022-12-08T07:45:57;7.03;;;4.20;;
10847;SDS011;5477;48.806;9.154;2022-12-08T07:48:26;6.23;;;4.10;;
10847;SDS011;5477;48.806;9.154;2022-12-08T07:50:58;5.57;;;4.03;;
10847;SDS011;5477;48.806;9.154;2022-12-08T07:53:28;7.17;;;3.80;;
10847;SDS011;5477;48.806;9.154;2022-12-08T07:55:56;5.63;;;3.63;;
10847;SDS011;5477;48.806;9.154;2022-12-08T07:58:25;6.43;;;3.87;;
10847;SDS011;5477;48.806;9.154;2022-12-08T08:00:53;7.17;;;4.00;;
10847;SDS011;5477;48.806;9.154;2022-12-08T08:03:21;5.57;;;3.73;;
10847;SDS011;5477;48.806;9.154;2022-12-08T08:05:49;5.67;;;3.60;;
10847;SDS011;5477;48.806;9.154;2022-12-08T08:08:17;5.37;;;3.73;;
10847;SDS011;5477;48.806;9.154;2022-12-08T08:10:46;4.90;;;3.73;;
10847;SDS011;5477;48.806;9.154;2022-12-08T08:13:14;6.70;;;4.10;;
10847;SDS011;5477;48.806;9.154;2022-12-08T08:15:42;5.37;;;3.87;;
10847;SDS011;5477;48.806;9.154;2022-12-08T08:18:10;4.80;;;3.80;;
10847;SDS011;5477;48.806;9.154;2022-12-08T08:20:38;10.00;;;4.20;;
10847;SDS011;5477;48.806;9.154;2022-12-08T08:23:06;6.23;;;3.80;;
10847;SDS011;5477;48.806;9.154;2022-12-08T08:25:34;4.67;;;3.47;;
10847;SDS011;5477;48.806;9.154;2022-12-08T08:28:04;5.17;;;3.73;;
10847;SDS011;5477;48.806;9.154;2022-12-08T08:30:32;5.93;;;3.63;;
10847;SDS011;5477;48.806;9.154;2022-12-08T08:32:59;6.57;;;3.33;;
10847;SDS011;5477;48.806;9.154;2022-12-08T08:35:27;6.47;;;4.33;;
10847;SDS011;5477;48.806;9.154;2022-12-08T08:37:55;7.00;;;4.07;;
10847;SDS011;5477;48.806;9.154;2022-12-08T08:40:23;5.97;;;4.07;;
10847;SDS011;5477;48.806;9.154;2022-12-08T08:42:51;5.30;;;4.20;;
10847;SDS011;5477;48.806;9.154;2022-12-08T08:45:21;5.13;;;3.67;;
10847;SDS011;5477;48.806;9.154;2022-12-08T08:47:50;7.73;;;4.53;;
10847;SDS011;5477;48.806;9.154;2022-12-08T08:50:18;6.13;;;4.43;;
10847;SDS011;5477;48.806;9.154;2022-12-08T08:52:46;6.70;;;4.60;;
10847;SDS011;5477;48.806;9.154;2022-12-08T08:55:15;7.63;;;5.20;;
10847;SDS011;5477;48.806;9.154;2022-12-08T08:57:43;7.10;;;5.03;;
10847;SDS011;5477;48.806;9.154;2022-12-08T09:00:12;8.33;;;5.27;;
10847;SDS011;5477;48.806;9.154;2022-12-08T09:02:42;6.53;;;4.73;;
10847;SDS011;5477;48.806;9.154;2022-12-08T09:05:10;7.93;;;5.03;;
10847;SDS011;5477;48.806;9.154;2022-12-08T09:07:38;7.07;;;4.47;;
10847;SDS011;5477;48.806;9.154;2022-12-08T09:10:07;7.33;;;4.93;;
10847;SDS011;5477;48.806;9.154;2022-12-08T09:12:35;11.03;;;4.93;;
10847;SDS011;5477;48.806;9.154;2022-12-08T09:15:04;6.17;;;4.80;;
10847;SDS011;5477;48.806;9.154;2022-12-08T09:17:32;7.77;;;4.60;;
10847;SDS011;5477;48.806;9.154;2022-12-08T09:20:02;9.63;;;4.97;;
10847;SDS011;5477;48.806;9.154;2022-12-08T09:22:30;9.03;;;4.97;;
10847;SDS011;5477;48.806;9.154;2022-12-08T09:24:58;7.37;;;5.00;;
10847;SDS011;5477;48.806;9.154;2022-12-08T09:27:26;7.23;;;5.00;;
10847;SDS011;5477;48.806;9.154;2022-12-08T09:29:54;6.77;;;4.50;;
10847;SDS011;5477;48.806;9.154;2022-12-08T09:32:22;8.43;;;5.97;;
10847;SDS011;5477;48.806;9.154;2022-12-08T09:34:50;7.60;;;4.97;;
10847;SDS011;5477;48.806;9.154;2022-12-08T09:37:20;6.40;;;4.77;;
10847;SDS011;5477;48.806;9.154;2022-12-08T09:39:48;8.13;;;5.00;;
10847;SDS011;5477;48.806;9.154;2022-12-08T09:42:17;7.47;;;4.77;;
10847;SDS011;5477;48.806;9.154;2022-12-08T09:44:56;8.63;;;5.53;;
10847;SDS011;5477;48.806;9.154;2022-12-08T09:47:30;7.37;;;4.73;;
10847;SDS011;5477;48.806;9.154;2022-12-08T09:50:03;8.47;;;5.17;;
10847;SDS011;5477;48.806;9.154;2022-12-08T09:52:39;9.90;;;5.07;;
10847;SDS011;5477;48.806;9.154;2022-12-08T09:55:12;7.63;;;5.20;;
10847;SDS011;5477;48.806;9.154;2022-12-08T09:57:46;9.03;;;4.63;;
10847;SDS011;5477;48.806;9.154;2022-12-08T10:00:25;7.17;;;4.60;;
10847;SDS011;5477;48.806;9.154;2022-12-08T10:02:54;5.77;;;4.77;;
10847;SDS011;5477;48.806;9.154;2022-12-08T10:05:22;9.00;;;5.30;;
10847;SDS011;5477;48.806;9.154;2022-12-08T10:07:57;10.23;;;4.77;;
10847;SDS011;5477;48.806;9.154;2022-12-08T10:10:34;7.03;;;5.03;;
10847;SDS011;5477;48.806;9.154;2022-12-08T10:13:07;7.10;;;4.60;;
10847;SDS011;5477;48.806;9.154;2022-12-08T10:15:43;6.80;;;4.70;;
10847;SDS011;5477;48.806;9.154;2022-12-08T10:18:17;9.43;;;4.60;;
10847;SDS011;5477;48.806;9.154;2022-12-08T10:20:47;5.23;;;4.30;;
10847;SDS011;5477;48.806;9.154;2022-12-08T10:23:20;6.17;;;4.67;;
10847;SDS011;5477;48.806;9.154;2022-12-08T10:25:56;7.27;;;4.67;;
10847;SDS011;5477;48.806;9.154;2022-12-08T10:28:27;5.47;;;4.40;;
10847;SDS011;5477;48.806;9.154;2022-12-08T10:30:55;7.93;;;4.40;;
10847;SDS011;5477;48.806;9.154;2022-12-08T10:33:23;5.50;;;4.07;;
10847;SDS011;5477;48.806;9.154;2022-12-08T10:35:52;4.23;;;3.40;;
10847;SDS011;5477;48.806;9.154;2022-12-08T10:38:25;4.87;;;3.73;;
10847;SDS011;5477;48.806;9.154;2022-12-08T10:40:57;4.33;;;3.27;;
10847;SDS011;5477;48.806;9.154;2022-12-08T10:43:28;5.23;;;3.53;;
10847;SDS011;5477;48.806;9.154;2022-12-08T10:46:06;6.17;;;3.33;;
10847;SDS011;5477;48.806;9.154;2022-12-08T10:48:36;6.13;;;3.40;;
10847;SDS011;5477;48.806;9.154;2022-12-08T10:51:21;5.83;;;3.87;;
10847;SDS011;5477;48.806;9.154;2022-12-08T10:53:51;4.67;;;3.93;;
10847;SDS011;5477;48.806;9.154;2022-12-08T10:56:19;4.43;;;3.50;;
10847;SDS011;5477;48.806;9.154;2022-12-08T10:59:03;5.63;;;3.63;;
10847;SDS011;5477;48.806;9.154;2022-12-08T11:01:44;5.60;;;4.03;;
10847;SDS011;5477;48.806;9.154;2022-12-08T11:04:14;7.23;;;4.30;;
10847;SDS011;5477;48.806;9.154;2022-12-08T11:06:44;4.60;;;3.63;;
10847;SDS011;5477;48.806;9.154;2022-12-08T11:09:24;6.73;;;3.93;;
10847;SDS011;5477;48.806;9.154;2022-12-08T11:12:05;5.00;;;3.83;;
10847;SDS011;5477;48.806;9.154;2022-12-08T11:14:37;6.27;;;4.20;;
10847;SDS011;5477;48.806;9.154;2022-12-08T11:17:15;7.70;;;3.90;;
10847;SDS011;5477;48.806;9.154;2022-12-08T11:19:54;6.67;;;3.80;;
10847;SDS011;5477;48.806;9.154;2022-12-08T11:22:24;5.47;;;3.50;;
10847;SDS011;5477;48.806;9.154;2022-12-08T11:24:58;5.07;;;3.50;;
10847;SDS011;5477;48.806;9.154;2022-12-08T11:27:28;5.00;;;3.63;;
10847;SDS011;5477;48.806;9.154;2022-12-08T11:29:59;4.00;;;3.53;;
10847;SDS011;5477;48.806;9.154;2022-12-08T11:32:28;5.30;;;3.70;;
10847;SDS011;5477;48.806;9.154;2022-12-08T11:34:58;5.07;;;3.93;;
10847;SDS011;5477;48.806;9.154;2022-12-08T11:37:29;5.43;;;3.70;;
10847;SDS011;5477;48.806;9.154;2022-12-08T11:40:04;5.33;;;3.90;;
10847;SDS011;5477;48.806;9.154;2022-12-08T11:42:37;5.30;;;3.67;;
10847;SDS011;5477;48.806;9.154;2022-12-08T11:45:17;6.03;;;3.47;;
10847;SDS011;5477;48.806;9.154;2022-12-08T11:47:51;7.07;;;4.00;;
10847;SDS011;5477;48.806;9.154;2022-12-08T11:50:30;4.00;;;3.10;;
10847;SDS011;5477;48.806;9.154;2022-12-08T11:53:07;4.17;;;3.37;;
10847;SDS011;5477;48.806;9.154;2022-12-08T11:55:43;5.30;;;3.50;;
10847;SDS011;5477;48.806;9.154;2022-12-08T11:58:16;4.30;;;3.70;;
10847;SDS011;5477;48.806;9.154;2022-12-08T12:00:48;5.07;;;3.47;;
10847;SDS011;5477;48.806;9.154;2022-12-08T12:03:18;4.20;;;2.93;;
10847;SDS011;5477;48.806;9.154;2022-12-08T12:05:59;5.17;;;3.23;;
10847;SDS011;5477;48.806;9.154;2022-12-08T12:09:04;3.73;;;3.00;;
10847;SDS011;5477;48.806;9.154;2022-12-08T12:11:42;3.93;;;3.33;;
10847;SDS011;5477;48.806;9.154;2022-12-08T12:14:45;5.63;;;3.10;;
10847;SDS011;5477;48.806;9.154;2022-12-08T12:17:30;4.07;;;3.00;;
10847;SDS011;5477;48.806;9.154;2022-12-08T12:20:08;5.57;;;2.90;;
10847;SDS011;5477;48.806;9.154;2022-12-08T12:22:44;4.43;;;3.23;;
10847;SDS011;5477;48.806;9.154;2022-12-08T12:25:20;6.40;;;3.50;;
10847;SDS011;5477;48.806;9.154;2022-12-08T12:27:51;5.97;;;3.23;;
10847;SDS011;5477;48.806;9.154;2022-12-08T12:30:26;4.10;;;3.00;;
10847;SDS011;5477;48.806;9.154;2022-12-08T12:32:58;3.90;;;3.27;;
10847;SDS011;5477;48.806;9.154;2022-12-08T12:35:31;5.07;;;4.03;;
10847;SDS011;5477;48.806;9.154;2022-12-08T12:38:03;6.13;;;4.50;;
10847;SDS011;5477;48.806;9.154;2022-12-08T12:40:57;3.80;;;3.37;;
10847;SDS011;5477;48.806;9.154;2022-12-08T12:43:29;4.20;;;3.37;;
10847;SDS011;5477;48.806;9.154;2022-12-08T12:52:35;4.53;;;2.97;;
10847;SDS011;5477;48.806;9.154;2022-12-08T12:55:23;3.70;;;2.97;;
10847;SDS011;5477;48.806;9.154;2022-12-08T12:58:20;6.00;;;4.43;;
10847;SDS011;5477;48.806;9.154;2022-12-08T13:04:04;3.57;;;3.23;;
10847;SDS011;5477;48.806;9.154;2022-12-08T13:06:35;4.30;;;3.50;;
10847;SDS011;5477;48.806;9.154;2022-12-08T13:09:15;5.43;;;3.50;;
10847;SDS011;5477;48.806;9.154;2022-12-08T13:11:48;4.13;;;3.47;;
10847;SDS011;5477;48.806;9.154;2022-12-08T13:14:30;3.97;;;3.23;;
10847;SDS011;5477;48.806;9.154;2022-12-08T13:17:00;4.60;;;3.50;;
10847;SDS011;5477;48.806;9.154;2022-12-08T13:19:33;6.00;;;3.60;;
10847;SDS011;5477;48.806;9.154;2022-12-08T13:22:03;5.93;;;4.13;;
10847;SDS011;5477;48.806;9.154;2022-12-08T13:28:26;6.87;;;5.57;;
10847;SDS011;5477;48.806;9.154;2022-12-08T13:30:57;7.93;;;5.60;;
10847;SDS011;5477;48.806;9.154;2022-12-08T13:33:27;7.40;;;4.73;;
10847;SDS011;5477;48.806;9.154;2022-12-08T13:36:04;5.67;;;3.90;;
10847;SDS011;5477;48.806;9.154;2022-12-08T13:38:39;5.30;;;4.40;;
10847;SDS011;5477;48.806;9.154;2022-12-08T13:41:12;4.17;;;3.50;;
10847;SDS011;5477;48.806;9.154;2022-12-08T13:43:47;5.43;;;4.00;;
10847;SDS011;5477;48.806;9.154;2022-12-08T13:46:48;14.57;;;8.17;;
10847;SDS011;5477;48.806;9.154;2022-12-08T13:49:38;5.97;;;4.90;;
10847;SDS011;5477;48.806;9.154;2022-12-08T13:52:31;4.80;;;3.77;;
10847;SDS011;5477;48.806;9.154;2022-12-08T13:55:24;5.90;;;4.37;;
10847;SDS011;5477;48.806;9.154;2022-12-08T13:58:15;7.37;;;5.30;;
10847;SDS011;5477;48.806;9.154;2022-12-08T14:00:53;7.53;;;5.17;;
10847;SDS011;5477;48.806;9.154;2022-12-08T14:03:28;13.30;;;6.20;;
10847;SDS011;5477;48.806;9.154;2022-12-08T14:05:56;9.07;;;6.20;;
10847;SDS011;5477;48.806;9.154;2022-12-08T14:08:41;5.47;;;4.03;;
10847;SDS011;5477;48.806;9.154;2022-12-08T14:11:30;5.07;;;3.87;;
10847;SDS011;5477;48.806;9.154;2022-12-08T14:14:02;6.30;;;3.70;;
10847;SDS011;5477;48.806;9.154;2022-12-08T14:16:36;5.87;;;3.67;;
10847;SDS011;5477;48.806;9.154;2022-12-08T14:19:13;5.77;;;3.17;;
10847;SDS011;5477;48.806;9.154;2022-12-08T14:21:47;5.00;;;3.57;;
10847;SDS011;5477;48.806;9.154;2022-12-08T14:24:20;5.23;;;3.30;;
10847;SDS011;5477;48.806;9.154;2022-12-08T14:26:50;4.30;;;3.37;;
10847;SDS011;5477;48.806;9.154;2022-12-08T14:32:19;4.70;;;3.27;;
10847;SDS011;5477;48.806;9.154;2022-12-08T14:34:52;7.17;;;3.60;;
10847;SDS011;5477;48.806;9.154;2022-12-08T14:37:21;5.83;;;3.80;;
10847;SDS011;5477;48.806;9.154;2022-12-08T14:39:51;7.53;;;3.97;;
10847;SDS011;5477;48.806;9.154;2022-12-08T14:42:24;4.43;;;3.20;;
10847;SDS011;5477;48.806;9.154;2022-12-08T14:44:54;8.07;;;3.90;;
10847;SDS011;5477;48.806;9.154;2022-12-08T14:47:30;6.50;;;4.10;;
10847;SDS011;5477;48.806;9.154;2022-12-08T14:50:00;6.40;;;4.10;;
10847;SDS011;5477;48.806;9.154;2022-12-08T14:52:31;4.40;;;3.53;;
10847;SDS011;5477;48.806;9.154;2022-12-08T14:54:59;4.63;;;3.40;;
10847;SDS011;5477;48.806;9.154;2022-12-08T14:57:30;6.97;;;3.50;;
10847;SDS011;5477;48.806;9.154;2022-12-08T15:00:08;5.33;;;3.67;;
10847;SDS011;5477;48.806;9.154;2022-12-08T15:02:47;5.77;;;3.50;;
10847;SDS011;5477;48.806;9.154;2022-12-08T15:05:16;5.43;;;3.40;;
10847;SDS011;5477;48.806;9.154;2022-12-08T15:07:47;4.70;;;3.33;;
10847;SDS011;5477;48.806;9.154;2022-12-08T15:10:19;4.20;;;3.17;;
10847;SDS011;5477;48.806;9.154;2022-12-08T15:12:59;4.50;;;3.50;;
10847;SDS011;5477;48.806;9.154;2022-12-08T15:15:30;5.67;;;3.47;;
10847;SDS011;5477;48.806;9.154;2022-12-08T15:18:17;5.60;;;3.20;;
10847;SDS011;5477;48.806;9.154;2022-12-08T15:21:20;5.67;;;3.50;;
10847;SDS011;5477;48.806;9.154;2022-12-08T15:23:56;3.83;;;3.03;;
10847;SDS011;5477;48.806;9.154;2022-12-08T15:26:24;4.57;;;3.43;;
10847;SDS011;5477;48.806;9.154;2022-12-08T15:28:54;5.57;;;3.30;;
10847;SDS011;5477;48.806;9.154;2022-12-08T15:31:22;3.83;;;2.90;;
10847;SDS011;5477;48.806;9.154;2022-12-08T15:33:52;5.17;;;3.40;;
10847;SDS011;5477;48.806;9.154;2022-12-08T15:36:20;5.77;;;3.37;;
10847;SDS011;5477;48.806;9.154;2022-12-08T15:38:48;4.60;;;3.50;;
10847;SDS011;5477;48.806;9.154;2022-12-08T15:41:16;4.90;;;3.40;;
10847;SDS011;5477;48.806;9.154;2022-12-08T15:43:44;4.40;;;3.23;;
10847;SDS011;5477;48.806;9.154;2022-12-08T15:46:12;5.67;;;3.80;;
10847;SDS011;5477;48.806;9.154;2022-12-08T15:48:40;4.00;;;3.07;;
10847;SDS011;5477;48.806;9.154;2022-12-08T15:51:09;5.33;;;3.33;;
10847;SDS011;5477;48.806;9.154;2022-12-08T15:53:37;4.80;;;3.27;;